Time;durP1;ratioP1;P1;durP2;ratioP2;P2;SDS_P1;SDS_P2;PMS_P1;PMS_P2;Temp;Humidity;BMP_temperature;BMP_pressure;BME280_temperature;BME280_humidity;BME280_pressure;Samples;Min_cycle;Max_cycle;Signal;HPM_P1;HPM_P2
2022/05/01 00:00:46;;;;;;;3.40;2.08;;;;;;;;;;5014475;28;20052;-78
2022/05/01 00:03:30;;;;;;;2.60;1.50;;;;;;;;;;5031068;28;20050;-78
2022/05/01 00:05:58;;;;;;;2.50;1.67;;;;;;;;;;5033252;28;20026;-78
2022/05/01 00:08:23;;;;;;;4.10;2.22;;;;;;;;;;5014498;28;20045;-78
2022/05/01 00:10:49;;;;;;;3.70;2.17;;;;;;;;;;5030474;28;20030;-78
2022/05/01 00:13:15;;;;;;;3.83;2.15;;;;;;;;;;4997670;28;20044;-78
2022/05/01 00:15:41;;;;;;;3.10;1.70;;;;;;;;;;5031142;28;20037;-78
2022/05/01 00:18:07;;;;;;;2.25;1.50;;;;;;;;;;5030403;28;20045;-78
2022/05/01 00:20:33;;;;;;;4.28;2.10;;;;;;;;;;5030473;28;20088;-78
2022/05/01 00:22:58;;;;;;;4.35;2.10;;;;;;;;;;5030861;28;20042;-78
2022/05/01 00:25:24;;;;;;;4.32;2.70;;;;;;;;;;5029940;28;20038;-78
2022/05/01 00:27:49;;;;;;;4.15;2.05;;;;;;;;;;5013578;28;20471;-78
2022/05/01 00:30:15;;;;;;;3.80;1.77;;;;;;;;;;5030249;28;20400;-78
2022/05/01 00:38:08;;;;;;;6.53;2.45;;;;;;;;;;5032113;28;20033;-78
2022/05/01 00:40:33;;;;;;;4.47;1.92;;;;;;;;;;5013251;28;20087;-79
2022/05/01 00:43:03;;;;;;;4.57;1.98;;;;;;;;;;4997013;28;20052;-77
2022/05/01 00:45:29;;;;;;;3.85;1.98;;;;;;;;;;4997567;28;20068;-78
2022/05/01 00:47:55;;;;;;;3.47;1.92;;;;;;;;;;5013978;28;20121;-78
2022/05/01 00:50:20;;;;;;;2.72;1.60;;;;;;;;;;4981030;28;20050;-78
2022/05/01 00:52:46;;;;;;;8.82;2.05;;;;;;;;;;4980335;28;20091;-78
2022/05/01 00:55:11;;;;;;;4.13;2.03;;;;;;;;;;5029510;28;20026;-78
2022/05/01 00:57:37;;;;;;;4.95;1.67;;;;;;;;;;5029720;28;20050;-78
2022/05/01 01:00:04;;;;;;;4.80;2.03;;;;;;;;;;5030183;28;20038;-78
2022/05/01 01:02:31;;;;;;;4.85;2.17;;;;;;;;;;5029806;28;20034;-78
2022/05/01 01:04:57;;;;;;;3.00;2.00;;;;;;;;;;4997028;28;20030;-78
2022/05/01 01:07:25;;;;;;;3.25;2.38;;;;;;;;;;4996263;28;20044;-78
2022/05/01 01:09:50;;;;;;;7.18;2.55;;;;;;;;;;5030117;28;20100;-78
2022/05/01 01:15:09;;;;;;;2.28;1.70;;;;;;;;;;5027174;28;20042;-78
2022/05/01 01:17:40;;;;;;;3.58;1.83;;;;;;;;;;5029467;28;20523;-78
2022/05/01 01:20:18;;;;;;;4.80;2.13;;;;;;;;;;5013322;28;20038;-78
2022/05/01 01:22:44;;;;;;;3.60;1.70;;;;;;;;;;5013041;28;20408;-78
2022/05/01 01:25:10;;;;;;;5.03;1.80;;;;;;;;;;5012694;28;20050;-78
2022/05/01 01:27:39;;;;;;;2.88;1.98;;;;;;;;;;5012756;28;20511;-78
2022/05/01 01:32:49;;;;;;;3.70;2.38;;;;;;;;;;5013209;28;20065;-78
2022/05/01 01:35:15;;;;;;;3.92;1.88;;;;;;;;;;5029257;28;20039;-79
2022/05/01 01:37:44;;;;;;;3.75;1.90;;;;;;;;;;5012269;28;20061;-78
2022/05/01 01:40:12;;;;;;;3.15;2.08;;;;;;;;;;5025759;28;20425;-78
2022/05/01 01:42:39;;;;;;;3.88;2.15;;;;;;;;;;4992800;28;20045;-78
2022/05/01 01:45:05;;;;;;;3.20;2.08;;;;;;;;;;5008911;28;20065;-78
2022/05/01 01:47:30;;;;;;;4.85;2.42;;;;;;;;;;5009105;28;20109;-78
2022/05/01 01:49:56;;;;;;;3.70;1.85;;;;;;;;;;5009084;28;20038;-77
2022/05/01 01:52:21;;;;;;;4.70;2.05;;;;;;;;;;5004842;28;20041;-78
2022/05/01 01:54:47;;;;;;;6.60;1.50;;;;;;;;;;5028642;28;20496;-78
2022/05/01 01:57:12;;;;;;;3.80;1.88;;;;;;;;;;5028185;28;20077;-77
2022/05/01 01:59:38;;;;;;;4.45;1.90;;;;;;;;;;5012527;28;20108;-78
2022/05/01 02:02:03;;;;;;;5.63;2.20;;;;;;;;;;5028948;28;20041;-78
2022/05/01 02:04:29;;;;;;;3.10;1.70;;;;;;;;;;5028529;28;20042;-78
2022/05/01 02:06:55;;;;;;;3.60;1.92;;;;;;;;;;5028091;28;20064;-77
2022/05/01 02:09:20;;;;;;;4.28;2.20;;;;;;;;;;5028355;28;20036;-78
2022/05/01 02:11:46;;;;;;;3.90;1.77;;;;;;;;;;5012082;28;20034;-77
2022/05/01 02:14:11;;;;;;;4.35;2.00;;;;;;;;;;5028005;28;20034;-78
2022/05/01 02:16:37;;;;;;;3.67;2.13;;;;;;;;;;5028336;28;20091;-78
2022/05/01 02:19:02;;;;;;;5.38;2.28;;;;;;;;;;5011878;28;20041;-78
2022/05/01 02:21:34;;;;;;;3.55;1.85;;;;;;;;;;5011526;28;20050;-78
2022/05/01 02:23:59;;;;;;;4.18;2.17;;;;;;;;;;5012229;28;20061;-78
2022/05/01 02:26:24;;;;;;;3.40;2.10;;;;;;;;;;5027569;28;20135;-78
2022/05/01 02:28:50;;;;;;;3.58;1.80;;;;;;;;;;5011780;28;20385;-77
2022/05/01 02:31:16;;;;;;;3.25;2.10;;;;;;;;;;5028111;28;20151;-78
2022/05/01 02:33:43;;;;;;;6.85;2.50;;;;;;;;;;5028441;28;20099;-78
2022/05/01 02:36:09;;;;;;;3.33;2.10;;;;;;;;;;5028127;28;20065;-78
2022/05/01 02:38:34;;;;;;;4.22;2.03;;;;;;;;;;5027856;28;20234;-78
2022/05/01 02:41:01;;;;;;;3.20;1.85;;;;;;;;;;5024422;28;20046;-78
2022/05/01 02:43:27;;;;;;;2.70;2.08;;;;;;;;;;5008164;28;20026;-78
2022/05/01 02:45:52;;;;;;;2.65;2.00;;;;;;;;;;4991767;28;20038;-79
2022/05/01 02:48:18;;;;;;;3.80;2.00;;;;;;;;;;5008203;28;20050;-79
2022/05/01 02:50:43;;;;;;;5.07;2.63;;;;;;;;;;4991334;28;20437;-78
2022/05/01 02:53:09;;;;;;;4.53;1.98;;;;;;;;;;5024351;28;20041;-78
2022/05/01 02:55:34;;;;;;;3.25;2.05;;;;;;;;;;4991555;28;20057;-78
2022/05/01 02:57:59;;;;;;;3.28;2.45;;;;;;;;;;4975273;28;20089;-78
2022/05/01 03:00:26;;;;;;;2.95;1.98;;;;;;;;;;4975231;28;20424;-78
2022/05/01 03:02:55;;;;;;;3.10;2.10;;;;;;;;;;4992063;28;20489;-78
2022/05/01 03:05:21;;;;;;;2.60;1.90;;;;;;;;;;4976030;28;20501;-78
2022/05/01 03:07:48;;;;;;;3.63;2.00;;;;;;;;;;4991184;28;20035;-78
2022/05/01 03:10:13;;;;;;;4.35;2.20;;;;;;;;;;4992010;28;20481;-78
2022/05/01 03:12:39;;;;;;;3.47;2.15;;;;;;;;;;4991628;28;20040;-78
2022/05/01 03:15:06;;;;;;;2.97;1.98;;;;;;;;;;4991355;28;20038;-78
2022/05/01 03:22:10;;;;;;;4.18;2.33;;;;;;;;;;4991171;28;20038;-78
2022/05/01 03:23:00;;;;;;;7.15;2.42;;;;;;;;;;4996109;28;20034;-78
2022/05/01 03:25:26;;;;;;;2.75;2.03;;;;;;;;;;4991115;28;20514;-78
2022/05/01 03:27:53;;;;;;;2.20;1.80;;;;;;;;;;4974826;28;20030;-78
2022/05/01 03:30:19;;;;;;;3.70;2.88;;;;;;;;;;4992025;28;20563;-78
2022/05/01 03:32:45;;;;;;;3.72;1.90;;;;;;;;;;4974924;28;20511;-78
2022/05/01 03:35:10;;;;;;;4.03;2.00;;;;;;;;;;4975155;28;20034;-78
2022/05/01 03:37:36;;;;;;;3.35;1.60;;;;;;;;;;4974770;28;20085;-78
2022/05/01 03:40:02;;;;;;;2.67;1.65;;;;;;;;;;4984280;28;20381;-78
2022/05/01 03:42:28;;;;;;;4.28;2.25;;;;;;;;;;4978101;28;20034;-78
2022/05/01 03:44:54;;;;;;;3.50;1.85;;;;;;;;;;4978603;28;20034;-78
2022/05/01 03:47:20;;;;;;;2.72;1.77;;;;;;;;;;4977815;28;20126;-79
2022/05/01 03:49:45;;;;;;;2.42;1.67;;;;;;;;;;4977746;28;20193;-78
2022/05/01 03:52:11;;;;;;;3.78;2.45;;;;;;;;;;4994119;28;20523;-78
2022/05/01 03:54:36;;;;;;;2.40;1.70;;;;;;;;;;4994147;28;20037;-78
2022/05/01 03:57:02;;;;;;;3.05;2.20;;;;;;;;;;4993803;28;20128;-78
2022/05/01 03:59:29;;;;;;;4.13;1.75;;;;;;;;;;5010600;28;20116;-78
2022/05/01 04:01:55;;;;;;;4.20;2.45;;;;;;;;;;5010496;28;20519;-79
2022/05/01 04:04:21;;;;;;;3.63;2.20;;;;;;;;;;5010380;28;20037;-78
2022/05/01 04:06:46;;;;;;;3.03;1.90;;;;;;;;;;5010095;28;20081;-78
2022/05/01 04:09:12;;;;;;;4.00;2.08;;;;;;;;;;4994059;28;20105;-78
2022/05/01 04:11:37;;;;;;;3.55;2.00;;;;;;;;;;4994125;28;20117;-78
2022/05/01 04:14:03;;;;;;;5.20;2.47;;;;;;;;;;4994374;28;20049;-78
2022/05/01 04:16:29;;;;;;;4.80;2.38;;;;;;;;;;4993614;28;20042;-78
2022/05/01 04:18:54;;;;;;;3.53;1.80;;;;;;;;;;5010133;28;20088;-78
2022/05/01 04:21:19;;;;;;;3.97;2.20;;;;;;;;;;4994319;28;20120;-78
2022/05/01 04:23:46;;;;;;;5.20;2.25;;;;;;;;;;4993970;28;20041;-79
2022/05/01 04:26:11;;;;;;;3.85;2.28;;;;;;;;;;5009975;28;20042;-78
2022/05/01 04:28:36;;;;;;;4.32;2.30;;;;;;;;;;5010417;28;20060;-78
2022/05/01 04:31:02;;;;;;;2.92;1.83;;;;;;;;;;5010169;28;20121;-78
2022/05/01 04:33:27;;;;;;;6.15;2.70;;;;;;;;;;5010391;28;20426;-78
2022/05/01 04:35:53;;;;;;;4.03;1.90;;;;;;;;;;5009934;28;20108;-79
2022/05/01 04:38:19;;;;;;;2.40;1.70;;;;;;;;;;5013717;28;20042;-78
2022/05/01 04:40:49;;;;;;;4.30;2.13;;;;;;;;;;5013306;28;20092;-78
2022/05/01 04:43:19;;;;;;;5.05;2.03;;;;;;;;;;4998079;28;20441;-78
2022/05/01 04:45:49;;;;;;;3.72;2.00;;;;;;;;;;5013518;28;20033;-78
2022/05/01 04:48:15;;;;;;;3.00;2.05;;;;;;;;;;4980944;28;20077;-78
2022/05/01 04:50:41;;;;;;;3.53;2.15;;;;;;;;;;4981215;28;20080;-78
2022/05/01 04:53:12;;;;;;;2.80;2.17;;;;;;;;;;4997219;28;20097;-79
2022/05/01 04:55:43;;;;;;;4.28;2.08;;;;;;;;;;5013823;28;20092;-78
2022/05/01 04:58:09;;;;;;;4.57;2.75;;;;;;;;;;5013602;28;20061;-78
2022/05/01 05:00:35;;;;;;;3.75;2.10;;;;;;;;;;4996486;28;20498;-78
2022/05/01 05:03:01;;;;;;;4.05;2.25;;;;;;;;;;4997405;28;20068;-78
2022/05/01 05:05:27;;;;;;;3.17;1.73;;;;;;;;;;5013123;28;20034;-78
2022/05/01 05:07:53;;;;;;;2.63;2.22;;;;;;;;;;5013283;28;20038;-79
2022/05/01 05:10:18;;;;;;;5.90;2.20;;;;;;;;;;5029342;28;20052;-78
2022/05/01 05:12:45;;;;;;;2.35;1.70;;;;;;;;;;5013100;28;20525;-78
2022/05/01 05:15:11;;;;;;;2.72;2.08;;;;;;;;;;5012899;28;20032;-78
2022/05/01 05:17:37;;;;;;;2.90;2.35;;;;;;;;;;5029194;28;20134;-78
2022/05/01 05:20:04;;;;;;;5.70;2.30;;;;;;;;;;5029679;28;20517;-77
2022/05/01 05:22:29;;;;;;;4.78;2.65;;;;;;;;;;5013125;28;20408;-77
2022/05/01 05:24:55;;;;;;;3.30;1.95;;;;;;;;;;4996326;28;20041;-77
2022/05/01 05:27:23;;;;;;;3.72;1.95;;;;;;;;;;5028971;28;20064;-77
2022/05/01 05:29:48;;;;;;;8.82;2.70;;;;;;;;;;5028872;28;20041;-78
2022/05/01 05:32:14;;;;;;;2.78;1.90;;;;;;;;;;5013093;28;20046;-77
2022/05/01 05:34:39;;;;;;;9.05;2.53;;;;;;;;;;5012685;28;20045;-79
2022/05/01 05:37:05;;;;;;;9.80;2.40;;;;;;;;;;5028584;28;20496;-78
2022/05/01 05:39:30;;;;;;;15.75;3.65;;;;;;;;;;5012882;28;20037;-78
2022/05/01 05:41:56;;;;;;;5.63;2.60;;;;;;;;;;4996347;28;20041;-78
2022/05/01 05:44:21;;;;;;;21.15;3.88;;;;;;;;;;4979627;28;20041;-78
2022/05/01 05:46:47;;;;;;;6.47;3.00;;;;;;;;;;4980080;28;20072;-78
2022/05/01 05:49:12;;;;;;;7.68;3.15;;;;;;;;;;4978811;28;20709;-78
2022/05/01 05:51:37;;;;;;;5.95;2.97;;;;;;;;;;4995927;28;20053;-78
2022/05/01 05:54:03;;;;;;;8.00;2.85;;;;;;;;;;5012304;28;20065;-77
2022/05/01 05:56:28;;;;;;;5.45;3.10;;;;;;;;;;5012005;28;20408;-78
2022/05/01 05:58:56;;;;;;;7.20;3.10;;;;;;;;;;4995502;28;20095;-78
2022/05/01 06:01:21;;;;;;;8.38;3.03;;;;;;;;;;4996409;28;20041;-79
2022/05/01 06:03:46;;;;;;;6.43;2.90;;;;;;;;;;5012092;28;20029;-79
2022/05/01 06:06:14;;;;;;;7.72;3.60;;;;;;;;;;4996104;28;20057;-79
2022/05/01 06:08:39;;;;;;;5.68;2.83;;;;;;;;;;4996358;28;20037;-78
2022/05/01 06:11:05;;;;;;;9.40;3.42;;;;;;;;;;5012056;28;20044;-79
2022/05/01 06:13:30;;;;;;;3.72;2.92;;;;;;;;;;5012205;28;20038;-78
2022/05/01 06:15:56;;;;;;;6.10;2.85;;;;;;;;;;5028815;28;20052;-78
2022/05/01 06:18:21;;;;;;;5.40;2.78;;;;;;;;;;4995005;28;20033;-78
2022/05/01 06:20:47;;;;;;;8.10;2.97;;;;;;;;;;4994967;28;20076;-78
2022/05/01 06:23:13;;;;;;;5.13;2.53;;;;;;;;;;4995801;28;20038;-78
2022/05/01 06:25:43;;;;;;;5.22;2.70;;;;;;;;;;4995013;28;20037;-78
2022/05/01 06:28:09;;;;;;;4.20;2.60;;;;;;;;;;5011731;28;20034;-79
2022/05/01 06:30:34;;;;;;;4.90;3.08;;;;;;;;;;4979101;28;20451;-78
2022/05/01 06:33:00;;;;;;;7.88;3.03;;;;;;;;;;5010812;28;20096;-78
2022/05/01 06:35:31;;;;;;;4.85;3.00;;;;;;;;;;5012006;28;20377;-78
2022/05/01 06:37:57;;;;;;;9.32;3.08;;;;;;;;;;5011285;28;20041;-79
2022/05/01 06:40:24;;;;;;;7.40;3.30;;;;;;;;;;5011550;28;20073;-78
2022/05/01 06:42:49;;;;;;;7.32;3.03;;;;;;;;;;4978898;28;20065;-78
2022/05/01 06:45:15;;;;;;;5.90;2.72;;;;;;;;;;4995070;28;20164;-78
2022/05/01 06:47:40;;;;;;;6.35;2.80;;;;;;;;;;4978694;28;20420;-78
2022/05/01 06:50:06;;;;;;;7.68;3.47;;;;;;;;;;4994885;28;20046;-78
2022/05/01 06:52:31;;;;;;;16.30;3.75;;;;;;;;;;5011182;28;20030;-78
2022/05/01 06:54:58;;;;;;;6.55;2.70;;;;;;;;;;5010903;28;20034;-79
2022/05/01 06:57:25;;;;;;;6.25;3.47;;;;;;;;;;5011047;28;20037;-76
2022/05/01 06:59:50;;;;;;;4.40;2.97;;;;;;;;;;5027517;28;20044;-76
2022/05/01 07:02:16;;;;;;;5.32;2.75;;;;;;;;;;5011098;28;20038;-76
2022/05/01 07:04:41;;;;;;;5.15;2.63;;;;;;;;;;5011301;28;20131;-76
2022/05/01 07:07:07;;;;;;;4.20;2.67;;;;;;;;;;5011055;28;20501;-77
2022/05/01 07:09:33;;;;;;;7.55;3.90;;;;;;;;;;5027357;28;20042;-76
2022/05/01 07:11:58;;;;;;;8.13;2.63;;;;;;;;;;5043621;28;20116;-76
2022/05/01 07:14:24;;;;;;;5.50;2.40;;;;;;;;;;5027264;28;20038;-77
2022/05/01 07:16:49;;;;;;;5.25;3.08;;;;;;;;;;5010683;28;20037;-77
2022/05/01 07:19:15;;;;;;;4.47;2.85;;;;;;;;;;5027109;28;20042;-77
2022/05/01 07:21:40;;;;;;;5.15;2.38;;;;;;;;;;5027536;28;20170;-77
2022/05/01 07:24:06;;;;;;;4.63;2.80;;;;;;;;;;5026899;28;20041;-77
2022/05/01 07:26:33;;;;;;;4.78;2.53;;;;;;;;;;5026583;28;20034;-77
2022/05/01 07:29:02;;;;;;;4.43;2.38;;;;;;;;;;5010811;28;20034;-77
2022/05/01 07:31:28;;;;;;;5.00;3.00;;;;;;;;;;5027284;28;20040;-77
2022/05/01 07:33:53;;;;;;;4.60;2.35;;;;;;;;;;5010805;28;20042;-77
2022/05/01 07:36:19;;;;;;;4.40;3.17;;;;;;;;;;5027088;28;20038;-77
2022/05/01 07:38:46;;;;;;;3.85;3.00;;;;;;;;;;5026789;28;20056;-78
2022/05/01 07:41:12;;;;;;;4.50;2.92;;;;;;;;;;5006957;28;20511;-77
2022/05/01 07:43:38;;;;;;;5.93;2.80;;;;;;;;;;4958927;28;20046;-77
2022/05/01 07:46:04;;;;;;;7.80;3.03;;;;;;;;;;4959710;28;20068;-77
2022/05/01 07:48:30;;;;;;;5.05;2.90;;;;;;;;;;4990580;28;20500;-77
2022/05/01 07:50:55;;;;;;;5.70;3.50;;;;;;;;;;4959536;28;20054;-77
2022/05/01 07:53:20;;;;;;;5.35;2.63;;;;;;;;;;5010280;28;20057;-77
2022/05/01 07:55:46;;;;;;;5.45;3.00;;;;;;;;;;5010171;28;20037;-77
2022/05/01 07:58:11;;;;;;;5.05;2.47;;;;;;;;;;4978291;28;20414;-77
2022/05/01 08:00:37;;;;;;;7.63;4.03;;;;;;;;;;5010483;28;20065;-77
2022/05/01 08:05:46;;;;;;;6.28;3.38;;;;;;;;;;5024383;28;20030;-77
2022/05/01 08:08:12;;;;;;;4.47;2.65;;;;;;;;;;5026605;28;20045;-77
2022/05/01 08:10:37;;;;;;;6.15;3.17;;;;;;;;;;5026471;28;20034;-77
2022/05/01 08:13:03;;;;;;;5.88;3.17;;;;;;;;;;5014053;28;20042;-77
2022/05/01 08:15:28;;;;;;;9.07;3.50;;;;;;;;;;5030201;28;20077;-77
2022/05/01 08:21:03;;;;;;;7.90;3.35;;;;;;;;;;4997612;28;20066;-77
2022/05/01 08:23:24;;;;;;;6.20;3.47;;;;;;;;;;5014004;28;20042;-77
2022/05/01 08:25:50;;;;;;;4.63;3.40;;;;;;;;;;5030559;28;20053;-77
2022/05/01 08:28:15;;;;;;;4.03;3.33;;;;;;;;;;5014009;28;20075;-77
2022/05/01 08:30:40;;;;;;;4.53;2.95;;;;;;;;;;5030283;28;20057;-77
2022/05/01 08:33:06;;;;;;;4.57;2.75;;;;;;;;;;5013801;28;20041;-77
2022/05/01 08:35:31;;;;;;;6.05;3.28;;;;;;;;;;5014027;28;20481;-77
2022/05/01 08:37:57;;;;;;;5.55;3.35;;;;;;;;;;5046462;28;20026;-76
2022/05/01 08:40:22;;;;;;;3.45;2.72;;;;;;;;;;5013268;28;20424;-77
2022/05/01 08:42:48;;;;;;;3.63;2.75;;;;;;;;;;4981265;28;20045;-77
2022/05/01 08:45:13;;;;;;;4.10;3.20;;;;;;;;;;4980963;28;20550;-77
2022/05/01 08:48:04;;;;;;;4.32;3.25;;;;;;;;;;5013393;28;20033;-77
2022/05/01 08:50:29;;;;;;;3.97;2.42;;;;;;;;;;5013536;28;20049;-77
2022/05/01 08:52:58;;;;;;;4.78;3.13;;;;;;;;;;4980456;28;20440;-77
2022/05/01 08:55:23;;;;;;;4.72;2.78;;;;;;;;;;5013160;28;20038;-77
2022/05/01 08:57:48;;;;;;;3.85;2.95;;;;;;;;;;4980827;28;20038;-77
2022/05/01 09:00:16;;;;;;;4.05;2.78;;;;;;;;;;5013293;28;20042;-77
2022/05/01 09:02:41;;;;;;;4.82;2.83;;;;;;;;;;5013597;28;20052;-77
2022/05/01 09:05:07;;;;;;;4.53;3.25;;;;;;;;;;5013582;28;20485;-77
2022/05/01 09:07:33;;;;;;;3.97;2.50;;;;;;;;;;4980101;28;20033;-77
2022/05/01 09:09:59;;;;;;;4.95;3.30;;;;;;;;;;5012882;28;20042;-77
2022/05/01 09:15:09;;;;;;;4.90;3.45;;;;;;;;;;5013169;28;20493;-77
2022/05/01 09:17:35;;;;;;;5.57;3.78;;;;;;;;;;5013142;28;20049;-77
2022/05/01 09:20:10;;;;;;;3.80;2.90;;;;;;;;;;5013017;28;20072;-77
2022/05/01 09:22:50;;;;;;;3.88;2.72;;;;;;;;;;5012987;28;20037;-77
2022/05/01 09:25:22;;;;;;;3.72;2.40;;;;;;;;;;5012361;28;20394;-77
2022/05/01 09:27:49;;;;;;;3.63;2.38;;;;;;;;;;5013036;28;20109;-77
2022/05/01 09:30:16;;;;;;;4.55;2.70;;;;;;;;;;5012755;28;20566;-76
2022/05/01 09:32:41;;;;;;;4.50;2.80;;;;;;;;;;5012821;28;20551;-77
2022/05/01 09:35:11;;;;;;;3.33;2.55;;;;;;;;;;5012318;28;20201;-77
2022/05/01 09:37:37;;;;;;;4.22;2.72;;;;;;;;;;5012057;28;20520;-77
2022/05/01 09:40:02;;;;;;;3.55;2.38;;;;;;;;;;5012561;28;20034;-77
2022/05/01 09:42:29;;;;;;;3.95;2.53;;;;;;;;;;5012522;28;20041;-77
2022/05/01 09:45:08;;;;;;;3.67;2.83;;;;;;;;;;4996217;28;20041;-77
2022/05/01 09:47:41;;;;;;;4.22;2.70;;;;;;;;;;5012597;28;20060;-77
2022/05/01 09:50:07;;;;;;;3.72;2.70;;;;;;;;;;4995739;28;20045;-77
2022/05/01 09:52:55;;;;;;;4.28;2.38;;;;;;;;;;4992860;28;20409;-77
2022/05/01 09:55:21;;;;;;;3.05;2.22;;;;;;;;;;5025617;28;20574;-77
2022/05/01 09:57:46;;;;;;;3.78;2.80;;;;;;;;;;4992823;28;20228;-77
2022/05/01 10:00:12;;;;;;;3.30;2.30;;;;;;;;;;5008783;28;20118;-77
2022/05/01 10:02:38;;;;;;;4.75;2.60;;;;;;;;;;5009067;28;20085;-77
2022/05/01 10:05:04;;;;;;;4.50;2.80;;;;;;;;;;4991887;28;20050;-77
2022/05/01 10:07:34;;;;;;;4.00;2.58;;;;;;;;;;5008543;28;20074;-77
2022/05/01 10:10:00;;;;;;;3.15;2.33;;;;;;;;;;5008050;28;20050;-77
2022/05/01 10:12:25;;;;;;;2.85;2.40;;;;;;;;;;4992709;28;20129;-77
2022/05/01 10:14:50;;;;;;;3.38;2.28;;;;;;;;;;5008679;28;20042;-77
2022/05/01 10:17:16;;;;;;;3.85;2.92;;;;;;;;;;5008654;28;20493;-77
2022/05/01 10:19:42;;;;;;;3.83;2.40;;;;;;;;;;5024800;28;20516;-77
2022/05/01 10:22:07;;;;;;;3.05;2.10;;;;;;;;;;5008535;28;20038;-77
2022/05/01 10:24:34;;;;;;;4.97;2.33;;;;;;;;;;5025190;28;20041;-77
2022/05/01 10:27:10;;;;;;;2.67;1.92;;;;;;;;;;5008044;28;20088;-77
2022/05/01 10:32:47;;;;;;;3.83;2.45;;;;;;;;;;4993164;28;20038;-77
2022/05/01 10:35:39;;;;;;;4.28;2.50;;;;;;;;;;5022312;28;20442;-77
2022/05/01 10:38:09;;;;;;;4.30;2.70;;;;;;;;;;5019622;28;20128;-77
2022/05/01 10:40:54;;;;;;;4.40;2.20;;;;;;;;;;5038867;28;20068;-77
2022/05/01 10:43:26;;;;;;;3.60;2.50;;;;;;;;;;5011807;28;20840;-77
2022/05/01 10:45:56;;;;;;;4.32;2.53;;;;;;;;;;5011738;28;20104;-77
2022/05/01 10:48:48;;;;;;;4.38;3.00;;;;;;;;;;5027119;28;20523;-77
2022/05/01 10:51:31;;;;;;;4.60;3.00;;;;;;;;;;5042250;28;20612;-77
2022/05/01 10:54:15;;;;;;;5.05;2.83;;;;;;;;;;5011258;28;20083;-77
2022/05/01 10:56:41;;;;;;;4.78;2.88;;;;;;;;;;5027387;28;20042;-78
2022/05/01 10:59:42;;;;;;;4.15;2.70;;;;;;;;;;5027287;28;20041;-77
2022/05/01 11:02:22;;;;;;;4.05;3.22;;;;;;;;;;5027191;28;20034;-77
2022/05/01 11:04:48;;;;;;;3.92;2.58;;;;;;;;;;5043851;28;20042;-77
2022/05/01 11:07:14;;;;;;;4.32;2.63;;;;;;;;;;5010467;28;20037;-77
2022/05/01 11:09:41;;;;;;;4.13;3.30;;;;;;;;;;5011009;28;20034;-77
2022/05/01 11:12:07;;;;;;;4.22;2.97;;;;;;;;;;5010920;28;20499;-77
2022/05/01 11:14:39;;;;;;;4.50;2.65;;;;;;;;;;5027325;28;20446;-77
2022/05/01 11:17:05;;;;;;;4.93;3.42;;;;;;;;;;5043452;28;20038;-77
2022/05/01 11:19:34;;;;;;;3.90;3.08;;;;;;;;;;5027154;28;20187;-77
2022/05/01 11:22:06;;;;;;;4.90;3.05;;;;;;;;;;5026910;28;20034;-77
2022/05/01 11:24:44;;;;;;;4.43;2.75;;;;;;;;;;5026535;28;20113;-76
2022/05/01 11:27:14;;;;;;;4.15;3.13;;;;;;;;;;5042741;28;20112;-79
2022/05/01 11:29:44;;;;;;;5.10;3.13;;;;;;;;;;5027335;28;20065;-77
2022/05/01 11:32:19;;;;;;;4.97;3.33;;;;;;;;;;5026774;28;20117;-77
2022/05/01 11:34:49;;;;;;;3.97;2.75;;;;;;;;;;5010570;28;20480;-77
2022/05/01 11:37:15;;;;;;;4.35;2.88;;;;;;;;;;5026748;28;20038;-77
2022/05/01 11:39:43;;;;;;;4.35;3.05;;;;;;;;;;5027067;28;20056;-77
2022/05/01 11:42:21;;;;;;;2.97;2.53;;;;;;;;;;5010427;28;20065;-77
2022/05/01 11:44:48;;;;;;;4.55;2.75;;;;;;;;;;5010410;28;20034;-77
2022/05/01 11:47:13;;;;;;;3.92;2.78;;;;;;;;;;5012485;28;20042;-77
2022/05/01 11:49:39;;;;;;;5.05;3.20;;;;;;;;;;4998166;28;20049;-77
2022/05/01 11:52:05;;;;;;;5.28;3.22;;;;;;;;;;4998460;28;20049;-77
2022/05/01 11:54:31;;;;;;;4.28;3.03;;;;;;;;;;5014312;28;20072;-77
2022/05/01 12:02:27;;;;;;;5.50;3.30;;;;;;;;;;5014703;28;20146;-77
2022/05/01 12:04:59;;;;;;;5.00;3.35;;;;;;;;;;5014139;28;20061;-77
2022/05/01 12:07:25;;;;;;;4.10;3.10;;;;;;;;;;5030771;28;20041;-77
2022/05/01 12:09:53;;;;;;;5.30;3.60;;;;;;;;;;5030449;28;20041;-77
2022/05/01 12:12:22;;;;;;;3.90;2.97;;;;;;;;;;5014246;28;20041;-77
2022/05/01 12:14:48;;;;;;;4.80;3.28;;;;;;;;;;5014083;28;20021;-77
2022/05/01 12:17:18;;;;;;;4.95;3.38;;;;;;;;;;5013968;28;20542;-77
2022/05/01 12:19:46;;;;;;;3.65;3.10;;;;;;;;;;4998544;28;20045;-77
2022/05/01 12:22:14;;;;;;;4.57;3.00;;;;;;;;;;5014421;28;20038;-77
2022/05/01 12:24:39;;;;;;;4.68;3.25;;;;;;;;;;5014254;28;20038;-77
2022/05/01 12:27:05;;;;;;;4.82;2.83;;;;;;;;;;5029988;28;20096;-77
2022/05/01 12:29:31;;;;;;;4.28;3.00;;;;;;;;;;5013856;28;20038;-77
2022/05/01 12:32:06;;;;;;;4.60;3.22;;;;;;;;;;5014121;28;20137;-77
2022/05/01 12:34:52;;;;;;;5.88;3.40;;;;;;;;;;5015243;28;20112;-77
2022/05/01 12:37:19;;;;;;;4.22;2.78;;;;;;;;;;5046253;28;20497;-76
2022/05/01 12:39:55;;;;;;;4.53;3.17;;;;;;;;;;5013574;28;20070;-77
2022/05/01 12:45:18;;;;;;;4.50;3.30;;;;;;;;;;4999817;28;20026;-77
2022/05/01 12:47:44;;;;;;;5.75;3.33;;;;;;;;;;4997331;28;20129;-77
2022/05/01 12:50:31;;;;;;;6.13;3.22;;;;;;;;;;5013631;28;20070;-77
2022/05/01 12:53:01;;;;;;;4.07;3.25;;;;;;;;;;4997233;28;20038;-77
2022/05/01 12:55:30;;;;;;;5.55;3.05;;;;;;;;;;5013648;28;20029;-77
2022/05/01 12:57:59;;;;;;;4.53;3.20;;;;;;;;;;5012477;28;20389;-77
2022/05/01 13:00:34;;;;;;;4.10;2.63;;;;;;;;;;5030520;28;20033;-77
2022/05/01 13:03:19;;;;;;;3.80;2.72;;;;;;;;;;5013523;28;20038;-77
2022/05/01 13:06:07;;;;;;;4.72;2.90;;;;;;;;;;5014249;28;20068;-77
2022/05/01 13:08:45;;;;;;;3.80;2.95;;;;;;;;;;5012940;28;20033;-77
2022/05/01 13:11:27;;;;;;;4.18;2.70;;;;;;;;;;5013547;28;20042;-77
2022/05/01 13:14:16;;;;;;;4.05;2.88;;;;;;;;;;5014867;28;20439;-77
2022/05/01 13:16:44;;;;;;;4.47;3.28;;;;;;;;;;5012848;28;20038;-77
2022/05/01 13:19:17;;;;;;;3.65;2.63;;;;;;;;;;5013073;28;20093;-77
2022/05/01 13:21:50;;;;;;;3.60;2.92;;;;;;;;;;5014763;28;20516;-77
2022/05/01 13:24:32;;;;;;;5.22;2.92;;;;;;;;;;4996763;28;20891;-77
2022/05/01 13:27:07;;;;;;;3.78;2.85;;;;;;;;;;4996803;28;20033;-77
2022/05/01 13:29:34;;;;;;;3.40;2.78;;;;;;;;;;4996626;28;20065;-77
2022/05/01 13:32:03;;;;;;;4.10;3.35;;;;;;;;;;5029270;28;20069;-77
2022/05/01 13:34:28;;;;;;;3.85;2.72;;;;;;;;;;5012654;28;20079;-77
2022/05/01 13:36:54;;;;;;;4.30;2.63;;;;;;;;;;5012347;28;20037;-77
2022/05/01 13:39:20;;;;;;;3.55;2.70;;;;;;;;;;5012228;28;20034;-77
2022/05/01 13:47:14;;;;;;;3.78;2.88;;;;;;;;;;5013491;28;20062;-77
2022/05/01 13:49:40;;;;;;;2.58;2.35;;;;;;;;;;4996512;28;20084;-77
2022/05/01 13:52:06;;;;;;;4.38;2.85;;;;;;;;;;4996356;28;20157;-77
2022/05/01 13:54:31;;;;;;;4.30;2.80;;;;;;;;;;5012375;28;20030;-77
2022/05/01 13:56:57;;;;;;;3.80;2.63;;;;;;;;;;5011815;28;20084;-77
2022/05/01 13:59:22;;;;;;;4.13;2.58;;;;;;;;;;5028980;28;20496;-77
2022/05/01 14:01:51;;;;;;;3.50;2.70;;;;;;;;;;5012490;28;20048;-77
2022/05/01 14:04:20;;;;;;;4.93;3.35;;;;;;;;;;5012415;28;20030;-78
2022/05/01 14:06:45;;;;;;;3.25;2.65;;;;;;;;;;5028963;28;20050;-78
2022/05/01 14:09:17;;;;;;;4.30;2.58;;;;;;;;;;4994720;28;20118;-78
2022/05/01 14:12:01;;;;;;;4.28;2.40;;;;;;;;;;5010487;28;20041;-78
2022/05/01 14:14:26;;;;;;;4.40;3.00;;;;;;;;;;5010543;28;20061;-79
2022/05/01 14:16:52;;;;;;;5.63;2.95;;;;;;;;;;5011943;28;20037;-78
2022/05/01 14:19:35;;;;;;;7.82;3.58;;;;;;;;;;5011532;28;20044;-78
2022/05/01 14:22:01;;;;;;;8.13;3.28;;;;;;;;;;5028331;28;20045;-78
2022/05/01 14:24:26;;;;;;;7.45;3.45;;;;;;;;;;5028267;28;20104;-78
2022/05/01 14:26:52;;;;;;;5.20;3.53;;;;;;;;;;5027742;28;20069;-78
2022/05/01 14:29:17;;;;;;;6.03;3.45;;;;;;;;;;4994983;28;20112;-78
2022/05/01 14:32:00;;;;;;;9.57;4.68;;;;;;;;;;5011872;28;20053;-79
2022/05/01 14:34:32;;;;;;;8.25;4.32;;;;;;;;;;5029782;28;20109;-78
2022/05/01 14:36:57;;;;;;;;;;;;;;;;;;5028268;28;20452;-78
2022/05/01 14:39:27;;;;;;;10.48;3.65;;;;;;;;;;5044112;28;19940;-77
2022/05/01 14:41:55;;;;;;;10.05;3.40;;;;;;;;;;4995255;28;20049;-78
2022/05/01 14:44:26;;;;;;;9.93;3.20;;;;;;;;;;4995602;28;20042;-78
2022/05/01 14:46:56;;;;;;;7.03;4.05;;;;;;;;;;4994923;28;20089;-79
2022/05/01 14:49:37;;;;;;;6.07;3.90;;;;;;;;;;4995090;28;20046;-79
2022/05/01 14:52:04;;;;;;;8.82;3.15;;;;;;;;;;5011120;28;20527;-79
2022/05/01 14:54:35;;;;;;;5.40;3.28;;;;;;;;;;5027406;28;20038;-78
2022/05/01 14:57:04;;;;;;;8.88;4.35;;;;;;;;;;5011841;28;20045;-78
2022/05/01 15:07:52;;;;;;;6.22;3.22;;;;;;;;;;5027874;28;20037;-77
2022/05/01 15:10:18;;;;;;;7.28;3.63;;;;;;;;;;5009711;28;20121;-77
2022/05/01 15:12:43;;;;;;;8.55;3.45;;;;;;;;;;5026970;28;20117;-77
2022/05/01 15:15:11;;;;;;;8.43;3.78;;;;;;;;;;5027514;28;20037;-78
2022/05/01 15:17:38;;;;;;;6.25;3.10;;;;;;;;;;5010704;28;20041;-77
2022/05/01 15:20:20;;;;;;;8.02;3.42;;;;;;;;;;5010562;28;20045;-77
2022/05/01 15:22:55;;;;;;;6.43;3.40;;;;;;;;;;5026345;28;20156;-77
2022/05/01 15:25:29;;;;;;;8.63;3.25;;;;;;;;;;5027373;28;20038;-77
2022/05/01 15:28:11;;;;;;;6.82;3.15;;;;;;;;;;5010156;28;20120;-77
2022/05/01 15:30:36;;;;;;;6.30;3.08;;;;;;;;;;5025556;28;20049;-77
2022/05/01 15:36:12;;;;;;;5.80;3.17;;;;;;;;;;5026628;28;20040;-77
2022/05/01 15:38:39;;;;;;;6.18;2.85;;;;;;;;;;5010300;28;20504;-77